메인 페이지
METAR-TAF:

METAR-TAF

공항 :

Mazatlán, 멕시코

위도: 23-10N, 경도: 106-16W, 고도: 10m

현재 날씨관측

예보는 51분 전, 12:48시(UTC)에 발표되었습니다.
북동3kt
온도 25°C
습도 94%
기압 1012 hPa
시정: 16.1km
고도 5000ft 상공 구름 조금

METAR: MMMZ 131248Z 05003KT 10SM FEW050 25/24 A2988 RMK 8/500 HZY

시각: 07:39 (13:39 UTC)

예보

예보는 2 시간 37분 전, 11:02시(UTC)에 발표되었습니다.
예보 대상 시간: 13일 12시부터 14일 12시까지 (UTC)
kt
시정: 9.7km
고도 2000ft 상공 구름 보통
고도 3000ft 상공 구름 많음
연무
13일 1700시부터 (UTC)
남서10kt
시정: 10km
고도 2500ft 상공 구름 보통
13일 2100시부터 (UTC)
10kt
시정: 10km
맑음
14일 0000시부터 (UTC)
서북서5kt
시정: 10km
고도 3000ft 상공 구름 보통
전환 중
14일 04시부터 14일 05시까지 (UTC)
고도 2000ft 상공 구름 많음

TAF: MMMZ 131102Z 1312/1412 00000KT 6SM HZ SCT020 BKN030 TX32/1320Z TN26/1312Z FM131700 22010KT P6SM SCT025 FM132100 28010KT P6SM SKC FM140000 30005KT P6SM SCT030 BECMG 1404/1405 BKN020

4,000개 이상의 공항 관측 자료 및 예보 (METAR 및 TAF 보고).

지도상에서 검색 가능한 기상관측소가 노란 점과 빨간 점으로 표시되어 있습니다.

기상관측소 명을 보려면 표시 위로 마우스를 이동하세요.

날씨 관측과 예보를 보려면 클릭하세요.

지도 변경 : 확대하려면 엑스 표시가 있는 녹색 버튼, 축소하려면 빼기 표시가 있는 녹색 버튼, 다음 페이지의 지도를 보려면 녹색 화살표를 클릭하세요.


METAR-TAF: